Time;durP1;ratioP1;P1;durP2;ratioP2;P2;SDS_P1;SDS_P2;PMS_P1;PMS_P2;Temp;Humidity;BMP_temperature;BMP_pressure;BME280_temperature;BME280_humidity;BME280_pressure;Samples;Min_cycle;Max_cycle;Signal;HPM_P1;HPM_P2
2022/10/07 00:00:15;;;;;;;18.27;6.80;;;;;;;9.22;93.56;102609.41;5030949;28;20068;-86
2022/10/07 00:02:41;;;;;;;18.97;7.70;;;;;;;9.20;93.82;102615.00;5030256;28;20041;-86
2022/10/07 00:05:07;;;;;;;21.83;7.97;;;;;;;9.21;94.16;102619.41;5029875;28;20025;-86
2022/10/07 00:07:32;;;;;;;21.40;8.47;;;;;;;9.15;94.34;102608.38;5030917;28;20413;-86
2022/10/07 00:09:57;;;;;;;22.43;8.40;;;;;;;9.16;94.48;102604.66;5030300;28;20339;-86
2022/10/07 00:12:23;;;;;;;22.43;9.80;;;;;;;9.15;94.61;102606.50;5030455;28;20047;-86
2022/10/07 00:14:48;;;;;;;24.73;10.73;;;;;;;9.12;94.91;102609.53;5030196;28;20119;-85
2022/10/07 00:17:13;;;;;;;25.50;9.63;;;;;;;9.14;94.92;102602.13;5029267;28;20032;-86
2022/10/07 00:19:39;;;;;;;22.07;8.70;;;;;;;9.15;94.83;102606.50;5005490;28;20044;-87
2022/10/07 00:22:04;;;;;;;22.20;7.77;;;;;;;9.06;95.08;102580.44;5029849;28;20042;-87
2022/10/07 00:24:29;;;;;;;16.93;5.83;;;;;;;9.16;95.05;102601.97;5029801;28;20477;-86
2022/10/07 00:26:55;;;;;;;17.60;5.70;;;;;;;9.12;95.40;102594.19;5030284;28;20531;-87
2022/10/07 00:29:20;;;;;;;15.90;5.20;;;;;;;9.01;95.55;102578.19;5030254;28;20458;-85
2022/10/07 00:31:46;;;;;;;15.93;5.43;;;;;;;9.13;95.10;102593.16;5029748;28;20032;-85
2022/10/07 00:34:11;;;;;;;17.60;5.73;;;;;;;9.12;95.36;102590.59;5029824;28;20091;-85
2022/10/07 00:36:37;;;;;;;17.57;5.40;;;;;;;9.11;95.66;102589.75;5030378;28;20044;-86
2022/10/07 00:39:12;;;;;;;16.73;5.50;;;;;;;9.07;95.75;102587.53;5029364;28;20033;-85
2022/10/07 00:41:43;;;;;;;18.95;5.65;;;;;;;9.07;95.95;102590.22;5030700;28;20392;-85
2022/10/07 00:44:30;;;;;;;19.13;6.37;;;;;;;9.05;96.40;102584.13;5029409;28;20035;-83
2022/10/07 00:47:02;;;;;;;17.57;6.80;;;;;;;8.94;96.50;102577.97;5029446;28;20483;-83
2022/10/07 00:49:29;;;;;;;16.80;6.03;;;;;;;8.88;96.28;102570.53;5030093;28;20037;-83
2022/10/07 00:51:55;;;;;;;20.13;6.20;;;;;;;8.83;97.40;102563.91;5028908;28;20108;-83
2022/10/07 00:54:21;;;;;;;20.07;5.60;;;;;;;8.77;97.40;102570.75;5029726;28;20043;-84
2022/10/07 00:56:49;;;;;;;20.27;6.40;;;;;;;8.76;97.81;102561.81;5029579;28;20040;-84
2022/10/07 00:59:17;;;;;;;19.37;5.87;;;;;;;8.91;97.85;102567.50;5021366;28;20065;-84
2022/10/07 01:01:42;;;;;;;15.70;5.83;;;;;;;8.94;97.48;102559.06;5030544;28;20038;-84
2022/10/07 01:04:09;;;;;;;19.57;5.83;;;;;;;8.91;97.58;102566.66;5029208;28;20701;-83
2022/10/07 01:06:38;;;;;;;19.30;5.77;;;;;;;8.93;97.39;102557.38;5030170;28;20033;-83
2022/10/07 01:09:04;;;;;;;18.43;6.10;;;;;;;8.95;97.70;102562.63;5028708;28;20059;-83
2022/10/07 01:11:53;;;;;;;18.33;6.20;;;;;;;8.94;97.42;102556.34;5029999;28;20411;-83
2022/10/07 01:14:38;;;;;;;21.00;6.60;;;;;;;8.90;97.37;102554.97;5029469;28;20044;-83
2022/10/07 01:17:26;;;;;;;18.45;6.22;;;;;;;8.90;97.49;102549.56;5030503;28;20667;-83
2022/10/07 01:19:54;;;;;;;16.97;5.67;;;;;;;8.83;98.01;102540.41;5029563;28;20025;-84
2022/10/07 01:22:38;;;;;;;15.03;5.23;;;;;;;8.93;97.14;102543.00;5029366;28;20481;-84
2022/10/07 01:25:25;;;;;;;17.60;5.97;;;;;;;8.87;98.16;102539.06;5029780;28;20025;-84
2022/10/07 01:27:59;;;;;;;16.33;5.47;;;;;;;8.83;97.63;102540.41;5028997;28;20033;-84
2022/10/07 01:30:27;;;;;;;;;;;;;;;8.98;96.26;102537.13;5025040;28;20059;-84
2022/10/07 01:32:58;;;;;;;17.27;6.13;;;;;;;8.79;96.88;102525.50;5013959;28;20334;-84
2022/10/07 01:35:28;;;;;;;14.33;5.50;;;;;;;8.77;97.37;102524.81;5033375;28;20306;-83
2022/10/07 01:37:59;;;;;;;19.33;5.40;;;;;;;8.70;98.16;102515.66;5033119;28;20040;-84
2022/10/07 01:40:34;;;;;;;19.00;5.73;;;;;;;8.69;98.51;102509.41;5007942;28;20025;-83
2022/10/07 01:43:00;;;;;;;19.17;5.53;;;;;;;8.73;97.64;102497.28;5033088;28;21103;-84
2022/10/07 01:45:29;;;;;;;16.47;5.67;;;;;;;8.73;98.13;102501.81;5033996;28;20041;-84
2022/10/07 01:47:54;;;;;;;19.60;5.60;;;;;;;8.64;98.74;102486.56;5033109;28;21579;-84
2022/10/07 01:50:24;;;;;;;18.10;5.53;;;;;;;8.71;99.41;102490.31;5033108;28;20037;-83
2022/10/07 01:52:50;;;;;;;19.93;5.53;;;;;;;8.74;100.00;102474.66;5032668;28;20503;-84
2022/10/07 01:55:31;;;;;;;20.93;5.93;;;;;;;8.86;99.31;102483.31;5033500;28;20148;-83
2022/10/07 01:58:05;;;;;;;17.03;5.93;;;;;;;8.84;99.42;102479.94;5032276;28;20674;-83
2022/10/07 02:00:32;;;;;;;19.70;5.77;;;;;;;8.80;98.90;102467.75;5033161;28;20025;-84
2022/10/07 02:03:28;;;;;;;20.83;6.00;;;;;;;8.81;98.81;102474.84;5032255;28;20558;-84
2022/10/07 02:06:15;;;;;;;18.00;6.23;;;;;;;8.81;98.62;102480.25;5031051;28;20665;-84
2022/10/07 02:08:45;;;;;;;21.27;6.30;;;;;;;8.75;98.41;102470.09;5032986;28;20040;-84
2022/10/07 02:11:26;;;;;;;17.33;5.37;;;;;;;8.73;98.85;102482.88;5023205;28;20099;-84
2022/10/07 02:13:59;;;;;;;16.07;5.50;;;;;;;8.72;98.99;102465.84;5032361;28;20508;-83
2022/10/07 02:16:39;;;;;;;16.93;5.20;;;;;;;8.70;99.26;102467.00;5006549;28;20048;-83
2022/10/07 02:19:14;;;;;;;18.37;6.03;;;;;;;8.64;99.34;102465.78;5031954;28;20428;-83
2022/10/07 02:21:42;;;;;;;18.87;5.83;;;;;;;8.61;99.15;102464.25;5032762;28;20198;-83
2022/10/07 02:24:10;;;;;;;19.37;5.60;;;;;;;8.58;99.75;102461.88;5032089;28;20154;-83
2022/10/07 02:26:37;;;;;;;20.60;5.73;;;;;;;8.56;99.68;102455.78;5031132;28;20610;-83
2022/10/07 02:29:06;;;;;;;18.57;5.70;;;;;;;8.47;99.75;102443.22;5031888;28;20492;-83
2022/10/07 02:31:33;;;;;;;16.90;5.93;;;;;;;8.47;99.87;102450.47;5032694;28;20039;-83
2022/10/07 02:34:06;;;;;;;18.23;6.10;;;;;;;8.41;99.73;102444.66;5031516;28;20033;-85
2022/10/07 02:36:38;;;;;;;18.27;5.90;;;;;;;8.35;99.67;102442.63;5032510;28;20035;-85
2022/10/07 02:39:05;;;;;;;15.77;5.60;;;;;;;8.33;99.97;102444.59;5032057;28;20045;-84
2022/10/07 02:41:34;;;;;;;22.53;6.07;;;;;;;8.33;100.00;102439.22;5005295;28;20044;-85
2022/10/07 02:44:08;;;;;;;19.67;6.33;;;;;;;8.12;100.00;102409.88;5031545;28;20029;-85
2022/10/07 02:46:41;;;;;;;17.88;5.68;;;;;;;8.27;100.00;102429.88;5032030;28;20392;-85
2022/10/07 02:49:11;;;;;;;17.77;5.87;;;;;;;8.22;100.00;102429.50;5022649;28;20034;-84
2022/10/07 02:51:45;;;;;;;20.23;5.90;;;;;;;8.23;100.00;102433.06;5032095;28;20106;-84
2022/10/07 02:54:15;;;;;;;19.10;6.47;;;;;;;8.08;100.00;102413.91;5013364;28;20043;-84
2022/10/07 02:56:41;;;;;;;20.50;6.67;;;;;;;8.13;100.00;102422.34;5031646;28;20036;-84
2022/10/07 02:59:10;;;;;;;19.57;6.93;;;;;;;8.13;100.00;102422.34;5031237;28;20102;-83
2022/10/07 03:01:44;;;;;;;18.27;6.50;;;;;;;8.10;100.00;102422.66;5032175;28;20029;-83
2022/10/07 03:04:10;;;;;;;19.83;6.30;;;;;;;8.09;100.00;102410.16;5031033;28;20041;-84
2022/10/07 03:06:35;;;;;;;21.43;7.00;;;;;;;8.01;100.00;102412.81;5032075;28;20768;-83
2022/10/07 03:09:02;;;;;;;18.57;6.60;;;;;;;7.98;100.00;102407.72;5031042;28;20118;-83
2022/10/07 03:11:27;;;;;;;23.17;7.10;;;;;;;7.98;100.00;102403.16;5031878;28;20118;-83
2022/10/07 03:13:53;;;;;;;23.17;7.17;;;;;;;7.93;100.00;102406.34;5005824;28;20127;-84
2022/10/07 03:16:18;;;;;;;20.27;7.10;;;;;;;7.91;100.00;102408.38;5031903;28;20033;-83
2022/10/07 03:18:44;;;;;;;21.20;6.33;;;;;;;7.89;100.00;102406.81;5023294;28;20115;-83
2022/10/07 03:21:09;;;;;;;19.50;6.47;;;;;;;8.03;100.00;102402.72;5023194;28;20123;-84
2022/10/07 03:23:35;;;;;;;19.03;6.60;;;;;;;7.99;100.00;102393.22;5031092;28;20135;-84
2022/10/07 03:26:00;;;;;;;20.03;6.27;;;;;;;8.06;100.00;102391.59;5030399;28;20599;-84
2022/10/07 03:28:28;;;;;;;21.47;6.77;;;;;;;8.07;100.00;102385.19;5031117;28;20491;-84
2022/10/07 03:30:53;;;;;;;16.90;5.90;;;;;;;8.15;100.00;102387.13;5030929;28;20037;-84
2022/10/07 03:33:25;;;;;;;20.47;6.23;;;;;;;8.19;100.00;102388.50;5031328;28;20072;-85
2022/10/07 03:35:50;;;;;;;21.80;6.30;;;;;;;8.18;100.00;102387.63;5030786;28;20550;-85
2022/10/07 03:38:15;;;;;;;20.17;5.83;;;;;;;8.19;100.00;102383.94;5031166;28;20045;-85
2022/10/07 03:40:43;;;;;;;17.80;6.00;;;;;;;8.12;100.00;102380.16;5005675;28;20120;-85
2022/10/07 03:43:08;;;;;;;16.17;5.83;;;;;;;8.15;100.00;102374.44;5031173;28;20041;-84
2022/10/07 03:45:36;;;;;;;18.77;5.83;;;;;;;8.17;100.00;102366.19;5030842;28;20895;-85
2022/10/07 03:48:02;;;;;;;18.63;5.93;;;;;;;8.14;100.00;102374.63;5031229;28;20033;-85
2022/10/07 03:50:27;;;;;;;19.13;6.00;;;;;;;8.09;100.00;102366.97;5030741;28;20112;-84
2022/10/07 03:52:53;;;;;;;15.53;5.37;;;;;;;8.15;100.00;102366.34;5030229;28;20359;-85
2022/10/07 03:55:18;;;;;;;18.87;6.30;;;;;;;8.19;100.00;102373.13;5030909;28;20076;-85
2022/10/07 03:57:50;;;;;;;18.03;5.87;;;;;;;8.24;100.00;102372.63;5030412;28;20497;-85
2022/10/07 04:00:16;;;;;;;18.93;6.50;;;;;;;8.16;100.00;102361.78;5029886;28;20045;-84
2022/10/07 04:02:42;;;;;;;19.63;6.20;;;;;;;8.23;100.00;102366.41;5030839;28;20125;-84
2022/10/07 04:05:07;;;;;;;19.77;6.40;;;;;;;8.20;100.00;102358.63;5030572;28;20426;-84
2022/10/07 04:07:33;;;;;;;21.70;6.77;;;;;;;8.13;100.00;102348.63;5030023;28;20367;-84
2022/10/07 04:09:58;;;;;;;17.87;6.30;;;;;;;8.12;100.00;102350.47;5030230;28;20037;-84
2022/10/07 04:12:23;;;;;;;22.53;6.33;;;;;;;8.20;100.00;102357.75;5030968;28;20041;-85
2022/10/07 04:14:49;;;;;;;21.97;6.60;;;;;;;8.16;100.00;102364.50;5029741;28;20056;-84
2022/10/07 04:17:17;;;;;;;16.57;6.30;;;;;;;8.10;100.00;102358.75;5030750;28;20550;-86
2022/10/07 04:19:43;;;;;;;18.27;6.03;;;;;;;8.07;100.00;102358.19;5029497;28;20168;-86
2022/10/07 04:22:08;;;;;;;21.60;6.53;;;;;;;8.07;100.00;102363.59;5029217;28;20057;-85
2022/10/07 04:24:34;;;;;;;20.77;6.93;;;;;;;8.01;100.00;102359.69;5029342;28;20045;-85
2022/10/07 04:26:59;;;;;;;20.17;6.47;;;;;;;7.97;100.00;102352.03;5005095;28;20123;-85
2022/10/07 04:29:24;;;;;;;17.83;6.50;;;;;;;7.93;100.00;102346.97;5004907;28;20037;-84
2022/10/07 04:31:50;;;;;;;20.73;6.33;;;;;;;7.89;100.00;102359.06;5030348;28;20159;-84
2022/10/07 04:34:15;;;;;;;15.50;6.00;;;;;;;7.85;100.00;102352.31;5029863;28;20155;-84
2022/10/07 04:36:41;;;;;;;19.27;6.57;;;;;;;7.81;100.00;102353.63;5030528;28;20047;-83
2022/10/07 04:39:06;;;;;;;23.70;7.43;;;;;;;7.83;100.00;102351.59;4988248;28;20041;-83
2022/10/07 04:41:31;;;;;;;20.73;6.70;;;;;;;7.75;100.00;102355.09;5029992;28;20042;-83
2022/10/07 04:43:57;;;;;;;22.27;6.87;;;;;;;7.72;100.00;102347.28;5029546;28;20128;-83
2022/10/07 04:46:22;;;;;;;21.23;6.83;;;;;;;7.75;100.00;102351.53;5029782;28;20168;-83
2022/10/07 04:48:47;;;;;;;21.60;7.13;;;;;;;7.74;100.00;102357.94;5029934;28;20037;-83
2022/10/07 04:51:14;;;;;;;20.00;6.63;;;;;;;7.68;100.00;102354.00;5029643;28;20099;-83
2022/10/07 04:53:40;;;;;;;16.90;5.93;;;;;;;7.67;100.00;102351.47;5030228;28;20037;-83
2022/10/07 04:56:07;;;;;;;22.63;6.63;;;;;;;7.67;100.00;102356.84;5030091;28;20033;-83
2022/10/07 04:58:32;;;;;;;19.63;6.50;;;;;;;7.66;100.00;102341.69;5021398;28;20172;-84
2022/10/07 05:00:59;;;;;;;19.33;6.77;;;;;;;7.56;100.00;102344.44;5029650;28;20036;-84
2022/10/07 05:03:26;;;;;;;20.97;6.53;;;;;;;7.60;100.00;102352.09;5030434;28;20045;-85
2022/10/07 05:05:55;;;;;;;19.87;6.60;;;;;;;7.60;100.00;102349.41;5024897;28;20035;-84
2022/10/07 05:08:26;;;;;;;22.00;6.57;;;;;;;7.59;100.00;102345.00;5033413;28;20263;-84
2022/10/07 05:10:55;;;;;;;16.10;6.30;;;;;;;7.57;100.00;102346.16;5015756;28;20047;-84
2022/10/07 05:13:23;;;;;;;22.10;6.83;;;;;;;7.55;100.00;102343.63;5033883;28;20051;-85
2022/10/07 05:15:54;;;;;;;21.27;6.80;;;;;;;7.49;100.00;102340.69;5034232;28;20611;-84
2022/10/07 05:18:21;;;;;;;22.00;6.87;;;;;;;7.50;100.00;102340.53;5034047;28;20037;-83
2022/10/07 05:20:47;;;;;;;19.57;6.23;;;;;;;7.46;100.00;102322.97;5033633;28;20076;-84
2022/10/07 05:23:18;;;;;;;20.27;6.23;;;;;;;7.52;100.00;102327.75;5033346;28;20090;-84
2022/10/07 05:25:44;;;;;;;20.13;6.83;;;;;;;7.52;100.00;102333.16;5033195;28;20040;-84
2022/10/07 05:28:11;;;;;;;20.10;6.07;;;;;;;7.44;100.00;102314.19;5033706;28;20076;-83
2022/10/07 05:30:37;;;;;;;23.57;7.10;;;;;;;7.35;100.00;102305.16;5032963;28;21427;-84
2022/10/07 05:33:03;;;;;;;20.17;6.23;;;;;;;7.31;100.00;102297.56;5007967;28;20040;-83
2022/10/07 05:35:28;;;;;;;22.10;6.73;;;;;;;7.43;100.00;102317.88;5032768;28;20060;-84
2022/10/07 05:37:54;;;;;;;18.40;5.63;;;;;;;7.52;100.00;102319.66;5032902;28;20037;-85
2022/10/07 05:40:20;;;;;;;22.50;6.50;;;;;;;7.50;100.00;102313.56;5032620;28;20036;-84
2022/10/07 05:42:45;;;;;;;21.77;6.40;;;;;;;7.53;100.00;102317.81;5033647;28;20036;-85
2022/10/07 05:45:10;;;;;;;21.40;6.03;;;;;;;7.49;100.00;102311.03;5032874;28;20090;-84
2022/10/07 05:47:36;;;;;;;24.00;7.10;;;;;;;7.49;100.00;102319.94;5032733;28;20112;-84
2022/10/07 05:50:02;;;;;;;21.63;6.67;;;;;;;7.47;100.00;102319.28;5032687;28;20477;-84
2022/10/07 05:52:28;;;;;;;20.63;6.20;;;;;;;7.50;100.00;102310.88;5033619;28;20037;-84
2022/10/07 05:54:53;;;;;;;23.57;6.67;;;;;;;7.57;100.00;102320.03;5032075;28;20080;-84
2022/10/07 05:57:18;;;;;;;22.63;6.33;;;;;;;7.54;100.00;102309.56;5033303;28;20040;-84
2022/10/07 05:59:44;;;;;;;22.60;6.43;;;;;;;7.54;100.00;102306.84;5007962;28;20033;-84
2022/10/07 06:02:13;;;;;;;21.90;6.00;;;;;;;7.61;100.00;102301.69;5032118;28;20477;-84
2022/10/07 06:04:42;;;;;;;21.73;5.90;;;;;;;7.54;100.00;102303.31;5033365;28;20120;-84
2022/10/07 06:07:08;;;;;;;20.43;5.53;;;;;;;7.59;100.00;102304.53;5032025;28;20041;-84
2022/10/07 06:15:02;;;;;;;18.73;5.97;;;;;;;7.67;100.00;102306.47;5031125;28;20503;-84
2022/10/07 06:17:27;;;;;;;19.17;6.07;;;;;;;7.71;100.00;102299.75;5032949;28;20284;-84
2022/10/07 06:19:52;;;;;;;25.37;5.93;;;;;;;7.76;100.00;102297.44;5051475;28;20469;-84
2022/10/07 06:22:18;;;;;;;20.87;5.80;;;;;;;7.76;100.00;102297.44;5016729;28;20077;-83
2022/10/07 06:24:44;;;;;;;20.77;5.90;;;;;;;7.81;100.00;102301.50;5012956;28;20083;-84
2022/10/07 06:27:09;;;;;;;22.33;5.80;;;;;;;7.84;100.00;102299.31;5045388;28;20030;-84
2022/10/07 06:29:35;;;;;;;24.33;5.70;;;;;;;7.78;100.00;102290.00;5040060;28;20033;-83
2022/10/07 06:35:22;;;;;;;17.43;5.50;;;;;;;7.94;100.00;102291.97;5036137;28;20046;-84
2022/10/07 06:37:47;;;;;;;16.77;5.47;;;;;;;7.98;100.00;102299.75;5054743;28;20372;-85
2022/10/07 06:40:13;;;;;;;21.13;5.70;;;;;;;7.95;100.00;102292.81;5036864;28;20045;-84
2022/10/07 06:42:38;;;;;;;24.17;5.70;;;;;;;7.99;100.00;102296.06;5034817;28;20025;-84
2022/10/07 06:45:04;;;;;;;18.20;5.83;;;;;;;8.05;100.00;102296.28;5044197;28;20033;-84
2022/10/07 06:47:29;;;;;;;21.00;5.60;;;;;;;8.05;100.00;102296.28;5042237;28;20060;-84
2022/10/07 06:49:54;;;;;;;19.20;5.40;;;;;;;8.13;100.00;102298.16;5035534;28;20036;-84
2022/10/07 06:52:20;;;;;;;20.07;5.50;;;;;;;8.20;100.00;102306.47;5016895;28;20060;-85
2022/10/07 06:54:45;;;;;;;16.90;5.10;;;;;;;8.24;100.00;102308.69;5034307;28;20116;-85
2022/10/07 06:57:10;;;;;;;19.17;5.43;;;;;;;8.28;100.00;102301.97;5036384;28;20033;-84
2022/10/07 06:59:36;;;;;;;17.23;5.13;;;;;;;8.25;100.00;102286.09;5048997;28;20048;-85
2022/10/07 07:02:01;;;;;;;15.73;5.10;;;;;;;8.28;100.00;102299.28;5029246;28;20038;-86
2022/10/07 07:04:27;;;;;;;20.03;5.17;;;;;;;8.41;100.00;102306.06;5035202;28;20038;-85
2022/10/07 07:06:52;;;;;;;24.50;5.30;;;;;;;8.47;100.00;102300.03;5022791;28;20489;-84
2022/10/07 07:09:20;;;;;;;24.60;6.37;;;;;;;8.52;100.00;102305.81;5024107;28;20045;-84
2022/10/07 07:11:45;;;;;;;20.13;5.27;;;;;;;8.61;100.00;102309.41;5023151;28;20037;-85
2022/10/07 07:14:11;;;;;;;21.03;5.07;;;;;;;8.69;100.00;102305.88;5021244;28;21381;-84
2022/10/07 07:16:37;;;;;;;17.47;5.23;;;;;;;8.84;99.67;102303.38;5022935;28;20033;-84
2022/10/07 07:19:05;;;;;;;23.83;6.17;;;;;;;8.90;99.31;102298.16;5023035;28;20083;-84
2022/10/07 07:21:32;;;;;;;18.60;5.30;;;;;;;9.06;99.12;102305.47;5025606;28;20103;-85
2022/10/07 07:23:58;;;;;;;17.93;6.47;;;;;;;9.19;98.85;102296.03;5031054;28;20032;-84
2022/10/07 07:26:26;;;;;;;19.00;7.27;;;;;;;9.37;98.18;102309.41;5030017;28;20420;-85
2022/10/07 07:28:52;;;;;;;19.50;6.90;;;;;;;9.50;97.17;102306.22;5030644;28;20033;-84
2022/10/07 07:31:17;;;;;;;19.90;6.33;;;;;;;9.66;97.01;102305.38;5030963;28;20115;-84
2022/10/07 07:33:43;;;;;;;20.90;6.63;;;;;;;9.76;95.77;102306.88;5031601;28;20049;-85
2022/10/07 07:36:16;;;;;;;22.33;6.70;;;;;;;9.90;95.08;102302.63;5030532;28;20044;-84
2022/10/07 07:38:42;;;;;;;19.47;7.20;;;;;;;10.14;94.96;102303.59;5031384;28;20044;-85
2022/10/07 07:41:08;;;;;;;19.80;6.40;;;;;;;10.28;92.49;102300.19;5030685;28;20052;-85
2022/10/07 07:43:34;;;;;;;18.17;6.60;;;;;;;10.51;92.33;102299.44;5031046;28;20040;-85
2022/10/07 07:45:59;;;;;;;18.00;5.50;;;;;;;10.73;91.95;102305.97;5030759;28;20564;-85
2022/10/07 07:48:25;;;;;;;17.97;5.53;;;;;;;10.89;89.87;102290.63;5031521;28;21377;-84
2022/10/07 07:50:51;;;;;;;17.23;5.27;;;;;;;11.09;88.75;102302.69;5030057;28;20037;-84
2022/10/07 07:53:16;;;;;;;19.20;5.93;;;;;;;11.29;87.88;102297.63;5031417;28;20135;-85
2022/10/07 07:55:53;;;;;;;19.60;6.13;;;;;;;11.58;88.18;102296.03;5005169;28;20116;-85
2022/10/07 07:58:20;;;;;;;18.60;5.90;;;;;;;11.82;86.98;102292.25;5030393;28;20040;-84
2022/10/07 08:00:56;;;;;;;15.83;4.97;;;;;;;12.04;84.58;102302.44;5031413;28;20072;-84
2022/10/07 08:03:22;;;;;;;18.37;5.10;;;;;;;12.42;84.93;102300.47;5029173;28;20127;-86
2022/10/07 08:05:47;;;;;;;17.70;5.90;;;;;;;12.74;84.02;102297.53;5029853;28;20037;-85
2022/10/07 08:08:13;;;;;;;18.50;5.30;;;;;;;12.98;81.09;102289.03;5004642;28;20297;-85
2022/10/07 08:10:41;;;;;;;17.70;4.43;;;;;;;13.07;79.08;102273.44;5030283;28;20043;-86
2022/10/07 08:13:07;;;;;;;18.73;4.90;;;;;;;13.28;78.49;102290.78;5030065;28;20644;-87
2022/10/07 08:15:32;;;;;;;16.37;5.20;;;;;;;13.56;77.83;102288.16;5031161;28;20049;-86
2022/10/07 08:17:58;;;;;;;16.67;4.57;;;;;;;13.68;77.30;102289.31;5029798;28;20048;-86
2022/10/07 08:20:23;;;;;;;16.70;4.77;;;;;;;13.87;76.65;102270.59;5029942;28;20103;-86
2022/10/07 08:22:48;;;;;;;16.27;4.37;;;;;;;14.00;74.50;102278.00;5030339;28;20076;-85
2022/10/07 08:25:15;;;;;;;18.13;4.60;;;;;;;14.11;73.27;102285.59;5004277;28;20045;-86
2022/10/07 08:27:41;;;;;;;19.00;4.40;;;;;;;14.38;72.47;102287.66;5030775;28;20043;-87
2022/10/07 08:30:07;;;;;;;14.50;4.47;;;;;;;14.56;71.67;102281.66;5030317;28;20041;-87
2022/10/07 08:32:33;;;;;;;16.87;4.07;;;;;;;14.67;72.60;102281.94;4988010;28;20082;-87
2022/10/07 08:34:58;;;;;;;14.50;4.67;;;;;;;14.66;71.21;102288.44;5021677;28;20040;-86
2022/10/07 08:37:24;;;;;;;15.30;3.50;;;;;;;14.55;70.86;102285.41;5029815;28;20909;-86
2022/10/07 08:39:49;;;;;;;17.17;4.33;;;;;;;14.28;73.02;102275.25;5021977;28;20120;-86
2022/10/07 08:42:32;;;;;;;13.77;4.00;;;;;;;13.99;73.54;102274.44;5004766;28;20028;-86
2022/10/07 08:44:58;;;;;;;13.53;4.00;;;;;;;13.84;73.05;102260.06;5029714;28;20112;-85
2022/10/07 08:47:38;;;;;;;13.90;3.80;;;;;;;14.02;73.15;102271.31;5029521;28;20037;-86
2022/10/07 08:50:49;;;;;;;15.40;3.70;;;;;;;14.08;74.25;102274.28;5029816;28;20029;-85
2022/10/07 08:53:19;;;;;;;15.57;3.50;;;;;;;13.89;73.61;102268.50;5009090;28;20060;-86
2022/10/07 08:55:55;;;;;;;12.70;3.77;;;;;;;14.14;72.89;102262.56;5029587;28;20654;-85
2022/10/07 08:58:39;;;;;;;17.27;4.50;;;;;;;14.26;72.68;102260.13;5030697;28;20430;-86
2022/10/07 09:01:08;;;;;;;;;;;;;;;14.80;73.25;102261.22;5029808;28;20342;-87
2022/10/07 09:03:54;;;;;;;17.93;3.97;;;;;;;14.88;72.13;102257.44;5029911;28;19920;-86
2022/10/07 09:06:35;;;;;;;14.60;3.40;;;;;;;15.00;72.15;102250.31;5030009;28;20033;-87
2022/10/07 09:09:13;;;;;;;12.30;3.20;;;;;;;15.19;70.79;102254.16;5029620;28;20039;-87
2022/10/07 09:11:41;;;;;;;12.93;3.27;;;;;;;15.07;69.56;102253.06;5029217;28;20037;-85
2022/10/07 09:14:21;;;;;;;12.20;3.30;;;;;;;15.29;69.29;102248.28;5029003;28;20033;-85
2022/10/07 09:16:50;;;;;;;16.43;3.57;;;;;;;15.52;67.87;102245.13;5011532;28;20104;-86
2022/10/07 09:19:42;;;;;;;14.27;3.60;;;;;;;15.67;68.71;102244.91;5029744;28;20044;-86
2022/10/07 09:22:20;;;;;;;13.17;3.40;;;;;;;15.92;68.17;102238.81;5029272;28;20493;-87
2022/10/07 09:24:48;;;;;;;11.93;3.10;;;;;;;15.69;66.22;102235.47;5027853;28;20579;-86
2022/10/07 09:27:19;;;;;;;11.73;2.73;;;;;;;15.68;67.67;102225.56;5029485;28;20041;-86
2022/10/07 09:29:44;;;;;;;12.33;3.00;;;;;;;16.10;64.86;102229.91;5029510;28;20599;-86
2022/10/07 09:32:16;;;;;;;14.37;3.30;;;;;;;16.19;65.46;102236.84;5029257;28;20037;-87
2022/10/07 09:34:41;;;;;;;15.87;3.77;;;;;;;16.06;64.25;102231.41;5020475;28;20390;-85
2022/10/07 09:37:20;;;;;;;13.77;3.40;;;;;;;16.24;64.36;102234.28;5028635;28;20251;-86
2022/10/07 09:39:51;;;;;;;11.90;3.20;;;;;;;16.22;64.25;102232.84;5029710;28;20033;-87
2022/10/07 09:42:37;;;;;;;13.40;4.00;;;;;;;16.28;65.14;102229.22;5027747;28;20069;-87
2022/10/07 09:45:17;;;;;;;14.47;3.10;;;;;;;16.27;64.25;102222.09;5028952;28;20682;-87
2022/10/07 09:47:43;;;;;;;15.00;3.97;;;;;;;16.24;65.02;102219.75;5028497;28;20033;-86
2022/10/07 09:50:37;;;;;;;12.67;3.33;;;;;;;16.57;65.65;102225.09;5031502;28;20048;-86
2022/10/07 09:53:05;;;;;;;11.05;2.67;;;;;;;16.38;65.21;102214.03;5033203;28;20044;-86
2022/10/07 09:55:38;;;;;;;10.93;2.90;;;;;;;16.47;64.77;102202.84;5032600;28;20036;-86
2022/10/07 09:58:15;;;;;;;15.75;3.25;;;;;;;16.47;64.07;102203.69;5032394;28;20025;-87
2022/10/07 10:00:42;;;;;;;14.30;3.00;;;;;;;16.58;63.14;102206.78;5032735;28;20044;-86
2022/10/07 10:03:08;;;;;;;11.90;2.83;;;;;;;16.71;65.06;102195.75;5007247;28;20072;-86
2022/10/07 10:05:38;;;;;;;11.38;3.25;;;;;;;16.81;62.74;102171.50;5033086;28;20140;-87
2022/10/07 10:08:19;;;;;;;12.40;2.92;;;;;;;17.16;61.21;102205.78;5032846;28;20152;-86
2022/10/07 10:10:55;;;;;;;14.32;3.05;;;;;;;17.36;61.97;102191.94;5015374;28;20522;-87
2022/10/07 10:13:34;;;;;;;15.13;3.00;;;;;;;17.43;61.27;102183.66;5032179;28;20501;-87
2022/10/07 10:16:02;;;;;;;12.75;3.03;;;;;;;17.50;59.50;102196.25;5032761;28;20089;-87
2022/10/07 10:18:34;;;;;;;12.55;3.33;;;;;;;17.63;59.88;102187.03;5024107;28;20029;-88
2022/10/07 10:21:28;;;;;;;16.42;3.17;;;;;;;17.84;60.95;102183.03;5031993;28;20576;-87
2022/10/07 10:24:00;;;;;;;13.98;3.22;;;;;;;17.90;58.29;102173.06;5013900;28;20049;-86
2022/10/07 10:26:54;;;;;;;13.43;3.30;;;;;;;17.65;60.25;102171.22;5033521;28;20079;-87
2022/10/07 10:29:25;;;;;;;;;;;;;;;17.91;61.14;102171.13;5040450;28;20094;-87
2022/10/07 10:32:03;;;;;;;11.45;3.00;;;;;;;17.48;59.97;102167.38;5037446;28;19933;-87
2022/10/07 10:34:59;;;;;;;12.13;3.00;;;;;;;18.00;60.05;102162.41;5039409;28;20060;-87
2022/10/07 10:37:50;;;;;;;13.43;2.50;;;;;;;18.06;59.34;102157.94;5013298;28;20453;-87
2022/10/07 10:40:36;;;;;;;12.65;2.88;;;;;;;18.10;55.95;102128.13;4987736;28;20100;-85
2022/10/07 10:43:10;;;;;;;11.52;3.10;;;;;;;18.21;56.42;102141.06;5034432;28;20017;-86
2022/10/07 10:45:50;;;;;;;;;;;;;;;18.82;55.11;102144.59;5039435;28;20091;-86
2022/10/07 10:48:33;;;;;;;11.45;2.70;;;;;;;18.29;56.78;102140.75;5041618;28;19913;-86
2022/10/07 10:51:22;;;;;;;12.55;3.17;;;;;;;18.39;56.77;102137.44;5044794;28;20398;-86
2022/10/07 10:53:48;;;;;;;15.20;3.17;;;;;;;18.34;55.30;102137.28;5035813;28;20104;-87
2022/10/07 10:56:57;;;;;;;11.77;2.65;;;;;;;18.20;57.04;102128.41;5035406;28;20112;-87
2022/10/07 10:59:47;;;;;;;13.88;3.03;;;;;;;18.38;56.70;102131.09;4973707;28;20058;-87
2022/10/07 11:02:30;;;;;;;13.27;2.60;;;;;;;18.30;55.69;102125.94;4973034;28;20363;-87
2022/10/07 11:05:20;;;;;;;11.77;3.00;;;;;;;18.32;55.18;102118.31;5023961;28;20037;-85
2022/10/07 11:07:59;;;;;;;12.48;2.80;;;;;;;18.20;54.98;102117.44;5042184;28;20029;-87
2022/10/07 11:10:30;;;;;;;10.00;2.63;;;;;;;18.03;54.99;102115.34;5021864;28;20045;-87
2022/10/07 11:13:37;;;;;;;11.02;2.45;;;;;;;18.28;56.39;102111.63;5043281;28;20021;-87
2022/10/07 11:16:10;;;;;;;10.80;2.75;;;;;;;17.94;55.93;102105.75;4978819;28;20064;-87
2022/10/07 11:18:35;;;;;;;9.75;2.35;;;;;;;17.89;56.29;102103.66;5031569;28;20130;-88
2022/10/07 11:21:06;;;;;;;11.57;2.70;;;;;;;18.03;56.23;102098.03;5054971;28;20092;-88
2022/10/07 11:24:03;;;;;;;10.40;2.67;;;;;;;18.37;54.64;102099.25;5053148;28;20055;-87
2022/10/07 11:26:37;;;;;;;11.90;2.33;;;;;;;17.70;54.40;102094.59;5033260;28;20393;-87
2022/10/07 11:29:17;;;;;;;12.00;2.83;;;;;;;17.79;55.82;102086.06;5040616;28;20087;-87
2022/10/07 11:31:51;;;;;;;9.02;2.55;;;;;;;17.52;56.80;102081.75;5053932;28;20064;-87
2022/10/07 11:34:55;;;;;;;12.37;2.40;;;;;;;17.62;56.55;102078.47;5054529;28;20113;-86
2022/10/07 11:37:29;;;;;;;11.07;2.72;;;;;;;17.39;56.54;102065.47;4975283;28;20030;-87
2022/10/07 11:39:55;;;;;;;12.75;2.63;;;;;;;17.34;55.67;102065.34;5023452;28;20102;-86
2022/10/07 11:42:29;;;;;;;11.57;2.80;;;;;;;17.23;57.35;102055.97;5034876;28;20022;-86